Time;durP1;ratioP1;P1;durP2;ratioP2;P2;SDS_P1;SDS_P2;PMS_P1;PMS_P2;Temp;Humidity;BMP_temperature;BMP_pressure;BME280_temperature;BME280_humidity;BME280_pressure;Samples;Min_cycle;Max_cycle;Signal;HPM_P1;HPM_P2
2021/09/14 00:00:34;;;;;;;0.90;0.87;;;16.10;99.90;;;;;;5023860;28;20830;-75
2021/09/14 00:02:59;;;;;;;1.20;1.10;;;16.00;99.90;;;;;;5023267;28;20176;-75
2021/09/14 00:05:25;;;;;;;2.80;1.00;;;16.00;99.90;;;;;;5017256;28;20172;-75
2021/09/14 00:07:50;;;;;;;1.40;1.00;;;16.00;99.90;;;;;;5025288;28;20580;-75
2021/09/14 00:10:16;;;;;;;3.23;1.33;;;16.00;99.90;;;;;;5018263;28;20455;-76
2021/09/14 00:12:42;;;;;;;1.20;0.80;;;16.00;99.90;;;;;;5020606;28;20172;-75
2021/09/14 00:15:08;;;;;;;3.90;1.43;;;16.00;99.90;;;;;;5021669;28;20200;-76
2021/09/14 00:17:34;;;;;;;4.83;4.43;;;15.90;99.90;;;;;;5020186;28;20314;-75
2021/09/14 00:20:00;;;;;;;3.17;2.30;;;15.90;99.90;;;;;;5028758;28;20445;-76
2021/09/14 00:22:25;;;;;;;1.30;1.20;;;15.90;99.90;;;;;;5029623;28;20175;-75
2021/09/14 00:24:51;;;;;;;2.33;1.80;;;15.90;99.90;;;;;;5023620;28;20610;-75
2021/09/14 00:27:16;;;;;;;3.60;1.63;;;15.90;99.90;;;;;;5033414;28;20210;-75
2021/09/14 00:29:42;;;;;;;1.80;1.70;;;15.90;99.90;;;;;;5028486;28;20199;-76
2021/09/14 00:32:07;;;;;;;1.67;1.50;;;15.90;99.90;;;;;;5028544;28;20186;-75
2021/09/14 00:34:33;;;;;;;2.57;1.57;;;16.00;99.90;;;;;;5034842;28;20198;-75
2021/09/14 00:36:58;;;;;;;1.20;1.00;;;16.00;99.90;;;;;;5028402;28;20171;-75
2021/09/14 00:39:24;;;;;;;1.13;1.03;;;16.00;99.90;;;;;;5025161;28;20593;-76
2021/09/14 00:41:49;;;;;;;2.30;1.10;;;16.00;99.90;;;;;;5026827;28;20233;-75
2021/09/14 00:44:15;;;;;;;2.43;1.50;;;16.00;99.90;;;;;;5018693;28;20226;-75
2021/09/14 00:46:40;;;;;;;2.30;2.13;;;16.00;99.90;;;;;;5024045;28;20184;-76
2021/09/14 00:49:06;;;;;;;2.37;2.20;;;16.00;99.90;;;;;;5027987;28;20199;-75
2021/09/14 00:51:32;;;;;;;9.03;1.17;;;16.00;99.90;;;;;;5021975;28;20196;-75
2021/09/14 00:53:58;;;;;;;1.20;1.10;;;15.90;99.90;;;;;;5012968;28;20188;-76
2021/09/14 00:56:25;;;;;;;4.40;1.87;;;15.90;99.90;;;;;;5020605;28;20415;-75
2021/09/14 00:58:51;;;;;;;2.30;2.10;;;15.90;99.90;;;;;;5019020;28;20449;-75
2021/09/14 01:01:16;;;;;;;1.30;0.87;;;16.00;99.90;;;;;;5014954;28;20486;-76
2021/09/14 01:03:42;;;;;;;1.10;1.00;;;16.00;99.90;;;;;;5026575;28;20221;-75
2021/09/14 01:06:08;;;;;;;2.27;2.17;;;15.90;99.90;;;;;;5025035;28;20188;-76
2021/09/14 01:08:36;;;;;;;1.37;1.00;;;15.90;99.90;;;;;;5023171;28;20206;-76
2021/09/14 01:11:03;;;;;;;2.20;1.10;;;15.90;99.90;;;;;;5021374;28;20208;-76
2021/09/14 01:13:29;;;;;;;0.90;0.70;;;15.90;99.90;;;;;;5017001;28;20517;-76
2021/09/14 01:15:55;;;;;;;1.20;1.10;;;15.90;99.90;;;;;;5039633;28;21019;-76
2021/09/14 01:18:20;;;;;;;2.20;1.80;;;15.80;99.90;;;;;;5025219;28;20684;-75
2021/09/14 01:20:46;;;;;;;1.43;1.33;;;15.80;99.90;;;;;;5032291;28;20611;-74
2021/09/14 01:23:12;;;;;;;1.63;1.53;;;15.80;99.90;;;;;;5032398;28;20180;-75
2021/09/14 01:25:37;;;;;;;3.70;1.47;;;15.80;99.90;;;;;;5022955;28;20258;-76
2021/09/14 01:28:06;;;;;;;3.03;2.83;;;15.90;99.90;;;;;;5017567;28;20184;-76
2021/09/14 01:30:33;;;;;;;2.17;2.07;;;15.80;99.90;;;;;;5015523;28;20195;-75
2021/09/14 01:32:59;;;;;;;1.73;1.53;;;15.90;99.90;;;;;;5030281;28;20430;-75
2021/09/14 01:35:27;;;;;;;2.20;1.63;;;15.90;99.90;;;;;;5031410;28;20832;-75
2021/09/14 01:37:53;;;;;;;1.90;1.80;;;15.80;99.90;;;;;;5026563;28;21009;-75
2021/09/14 01:40:19;;;;;;;3.07;2.63;;;15.80;99.90;;;;;;5014859;28;20453;-76
2021/09/14 01:42:45;;;;;;;1.30;1.20;;;15.80;99.90;;;;;;5021845;28;20446;-75
2021/09/14 01:45:12;;;;;;;9.73;2.17;;;15.80;99.90;;;;;;5010547;28;20188;-75
2021/09/14 01:47:40;;;;;;;3.17;2.87;;;15.80;99.90;;;;;;5015420;28;20431;-76
2021/09/14 01:50:08;;;;;;;2.53;2.20;;;15.80;99.90;;;;;;5021102;28;20818;-76
2021/09/14 01:52:34;;;;;;;1.30;1.20;;;15.80;99.90;;;;;;5012175;28;21632;-74
2021/09/14 01:55:01;;;;;;;1.10;0.93;;;15.80;99.90;;;;;;5031010;28;20489;-75
2021/09/14 01:57:32;;;;;;;0.90;0.90;;;15.70;99.90;;;;;;5021565;28;20431;-75
2021/09/14 01:59:59;;;;;;;4.00;2.40;;;15.70;99.90;;;;;;5012820;28;20546;-75
2021/09/14 02:05:04;;;;;;;2.70;1.73;;;15.60;99.90;;;;;;5013176;28;20451;-75
2021/09/14 02:42:59;;;;;;;5.37;1.73;;;15.50;99.90;;;;;;5014318;28;20509;-76
2021/09/14 02:59:22;;;;;;;1.93;1.83;;;15.30;99.90;;;;;;5027824;28;20954;-75
2021/09/14 03:01:48;;;;;;;1.83;1.73;;;15.30;99.90;;;;;;5017921;28;20458;-75
2021/09/14 03:04:15;;;;;;;2.00;1.57;;;15.30;99.90;;;;;;5022487;28;20214;-75
2021/09/14 03:06:41;;;;;;;1.60;1.50;;;15.30;99.90;;;;;;5029138;28;20618;-76
2021/09/14 03:09:06;;;;;;;7.80;3.23;;;15.30;99.90;;;;;;5018768;28;20462;-76
2021/09/14 03:11:32;;;;;;;1.93;1.70;;;15.30;99.90;;;;;;5015436;28;20231;-76
2021/09/14 03:13:58;;;;;;;2.60;1.63;;;15.30;99.90;;;;;;5016245;28;20203;-75
2021/09/14 03:16:24;;;;;;;1.83;1.37;;;15.20;99.90;;;;;;5015814;28;20626;-76
2021/09/14 03:18:49;;;;;;;1.63;1.43;;;15.30;99.90;;;;;;5017411;28;20519;-76
2021/09/14 03:21:16;;;;;;;3.50;2.03;;;15.20;99.90;;;;;;5017206;28;20458;-76
2021/09/14 03:23:41;;;;;;;1.53;1.43;;;15.20;99.90;;;;;;5015649;28;20215;-77
2021/09/14 03:26:07;;;;;;;1.00;0.90;;;15.20;99.90;;;;;;5029435;28;20804;-77
2021/09/14 03:28:32;;;;;;;1.97;1.47;;;15.20;99.90;;;;;;5023815;28;20188;-76
2021/09/14 03:30:58;;;;;;;1.63;1.53;;;15.20;99.90;;;;;;5026346;28;20211;-76
2021/09/14 03:33:24;;;;;;;2.67;1.80;;;15.10;99.90;;;;;;5018271;28;20188;-76
2021/09/14 03:35:49;;;;;;;2.23;1.20;;;15.10;99.90;;;;;;5023822;28;20215;-77
2021/09/14 03:38:15;;;;;;;2.80;1.50;;;15.10;99.90;;;;;;5017524;28;20681;-76
2021/09/14 03:40:42;;;;;;;3.40;1.60;;;15.10;99.90;;;;;;5021440;28;20200;-76
2021/09/14 03:43:09;;;;;;;4.30;2.60;;;15.10;99.90;;;;;;5020717;28;20168;-76
2021/09/14 03:45:34;;;;;;;1.77;1.40;;;15.00;99.90;;;;;;5021568;28;20503;-75
2021/09/14 03:48:00;;;;;;;6.90;1.40;;;15.10;99.90;;;;;;5017756;28;20481;-76
2021/09/14 03:50:25;;;;;;;3.80;2.67;;;15.10;99.90;;;;;;5029996;28;20203;-75
2021/09/14 03:52:51;;;;;;;1.13;0.90;;;15.10;99.90;;;;;;5022002;28;20219;-75
2021/09/14 03:55:16;;;;;;;4.17;3.33;;;15.10;99.90;;;;;;5034393;28;20214;-75
2021/09/14 03:57:42;;;;;;;0.90;0.90;;;15.10;99.90;;;;;;5017214;28;20192;-76
2021/09/14 04:00:08;;;;;;;6.53;2.50;;;15.10;99.90;;;;;;5016775;28;20199;-75
2021/09/14 04:02:37;;;;;;;2.33;1.73;;;15.10;99.90;;;;;;5028549;28;20180;-75
2021/09/14 04:10:20;;;;;;;2.47;1.83;;;15.00;99.90;;;;;;5028961;28;20468;-76
2021/09/14 04:12:45;;;;;;;4.17;3.83;;;15.00;99.90;;;;;;5035755;28;20430;-76
2021/09/14 04:15:11;;;;;;;3.90;2.63;;;14.90;99.90;;;;;;5034648;28;20562;-75
2021/09/14 04:17:36;;;;;;;10.57;4.97;;;14.90;99.90;;;;;;5017287;28;20187;-77
2021/09/14 04:20:03;;;;;;;1.97;1.87;;;14.90;99.90;;;;;;5022926;28;20619;-77
2021/09/14 04:22:29;;;;;;;1.40;1.30;;;14.90;99.90;;;;;;5024716;28;20210;-75
2021/09/14 04:24:54;;;;;;;1.90;1.80;;;14.90;99.90;;;;;;5036739;28;20418;-75
2021/09/14 04:27:20;;;;;;;1.70;1.60;;;14.90;99.90;;;;;;5028313;28;20195;-77
2021/09/14 04:29:46;;;;;;;1.37;1.27;;;14.90;99.90;;;;;;5026137;28;20200;-75
2021/09/14 04:32:12;;;;;;;2.40;1.43;;;14.90;99.90;;;;;;5034521;28;20262;-75
2021/09/14 04:34:37;;;;;;;1.33;1.23;;;14.90;99.90;;;;;;5036997;28;20885;-75
2021/09/14 04:37:03;;;;;;;2.17;2.07;;;14.90;99.90;;;;;;5022795;28;20203;-75
2021/09/14 04:39:29;;;;;;;0.80;0.70;;;14.80;99.90;;;;;;5018512;28;20263;-77
2021/09/14 04:41:54;;;;;;;2.03;1.93;;;14.80;99.90;;;;;;5022482;28;20180;-73
2021/09/14 04:44:20;;;;;;;2.83;1.93;;;14.80;99.90;;;;;;5018045;28;20196;-77
2021/09/14 04:46:46;;;;;;;1.50;1.33;;;14.80;99.90;;;;;;5027098;28;20179;-75
2021/09/14 04:49:11;;;;;;;1.87;1.77;;;14.80;99.90;;;;;;5025633;28;20191;-75
2021/09/14 04:51:37;;;;;;;0.70;0.60;;;14.80;99.90;;;;;;5022039;28;20477;-76
2021/09/14 04:54:02;;;;;;;1.63;1.50;;;14.80;99.90;;;;;;5030835;28;20219;-75
2021/09/14 04:56:28;;;;;;;2.37;2.00;;;14.80;99.90;;;;;;5022452;28;20207;-75
2021/09/14 04:58:54;;;;;;;7.87;2.33;;;14.80;99.90;;;;;;5028482;28;20226;-75
2021/09/14 05:01:20;;;;;;;0.80;0.80;;;14.80;99.90;;;;;;5021238;28;20196;-76
2021/09/14 05:03:48;;;;;;;1.37;1.27;;;14.70;99.90;;;;;;5016631;28;20199;-75
2021/09/14 05:06:14;;;;;;;1.30;1.20;;;14.70;99.90;;;;;;5024469;28;20426;-75
2021/09/14 05:08:39;;;;;;;2.10;1.47;;;14.70;99.90;;;;;;5028252;28;20433;-75
2021/09/14 05:11:05;;;;;;;1.43;0.80;;;14.80;99.90;;;;;;5014773;28;20557;-76
2021/09/14 05:13:31;;;;;;;5.13;2.20;;;14.70;99.90;;;;;;5023107;28;20187;-77
2021/09/14 05:15:57;;;;;;;0.83;0.83;;;14.70;99.90;;;;;;5031641;28;20458;-77
2021/09/14 05:18:24;;;;;;;1.20;1.10;;;14.70;99.90;;;;;;5037330;28;20163;-77
2021/09/14 05:20:51;;;;;;;4.93;2.33;;;14.80;99.90;;;;;;5029808;28;20477;-77
2021/09/14 05:23:21;;;;;;;3.13;2.20;;;14.80;99.90;;;;;;5017316;28;20423;-77
2021/09/14 05:25:46;;;;;;;1.43;1.33;;;14.80;99.90;;;;;;5024431;28;20421;-77
2021/09/14 05:28:14;;;;;;;1.70;1.60;;;14.90;99.90;;;;;;5018514;28;20433;-76
2021/09/14 05:30:42;;;;;;;1.10;0.90;;;14.90;99.90;;;;;;5035629;28;20571;-78
2021/09/14 05:33:08;;;;;;;1.37;1.27;;;14.90;99.90;;;;;;5024449;28;20438;-77
2021/09/14 05:35:42;;;;;;;2.30;1.03;;;15.00;99.90;;;;;;5016264;28;20474;-77
2021/09/14 05:38:08;;;;;;;1.63;1.53;;;15.10;99.90;;;;;;5016196;28;20168;-76
2021/09/14 05:40:35;;;;;;;1.07;0.93;;;15.10;99.90;;;;;;5025581;28;20469;-77
2021/09/14 05:43:00;;;;;;;1.60;1.50;;;15.20;99.90;;;;;;5015679;28;20211;-77
2021/09/14 05:45:26;;;;;;;2.57;1.93;;;15.20;99.90;;;;;;5015510;28;20787;-77
2021/09/14 05:47:54;;;;;;;1.77;1.67;;;15.30;99.90;;;;;;5014388;28;20179;-76
2021/09/14 05:50:19;;;;;;;1.33;1.23;;;15.40;99.90;;;;;;5015508;28;20204;-76
2021/09/14 05:52:45;;;;;;;3.13;1.53;;;15.40;99.90;;;;;;5027275;28;20806;-76
2021/09/14 05:55:11;;;;;;;1.10;1.00;;;15.50;99.90;;;;;;5012637;28;20680;-75
2021/09/14 05:57:36;;;;;;;4.17;3.83;;;15.60;99.90;;;;;;5018351;28;20259;-76
2021/09/14 06:00:02;;;;;;;4.93;2.00;;;15.70;99.90;;;;;;5022080;28;20196;-75
2021/09/14 06:02:28;;;;;;;6.70;1.03;;;15.80;99.90;;;;;;5018935;28;20176;-75
2021/09/14 06:04:53;;;;;;;1.53;1.13;;;15.80;99.90;;;;;;5021468;28;20465;-76
2021/09/14 06:07:20;;;;;;;5.20;2.83;;;15.90;99.90;;;;;;5021685;28;20252;-76
2021/09/14 06:09:45;;;;;;;2.50;2.40;;;16.00;99.90;;;;;;5020016;28;20226;-77
2021/09/14 06:12:11;;;;;;;1.57;1.47;;;16.10;99.90;;;;;;5032667;28;20434;-77
2021/09/14 06:14:36;;;;;;;2.83;2.63;;;16.20;99.90;;;;;;5029420;28;20690;-76
2021/09/14 06:17:02;;;;;;;2.10;1.17;;;16.30;99.90;;;;;;5017154;28;20553;-76
2021/09/14 06:19:27;;;;;;;1.97;1.87;;;16.30;99.90;;;;;;5012127;28;20267;-76
2021/09/14 06:21:55;;;;;;;2.87;2.20;;;16.40;99.90;;;;;;5022070;28;20263;-77
2021/09/14 06:24:21;;;;;;;2.93;1.63;;;16.40;99.90;;;;;;5017261;28;20179;-77
2021/09/14 06:26:47;;;;;;;1.40;1.17;;;16.40;99.90;;;;;;5015276;28;20458;-76
2021/09/14 06:29:12;;;;;;;2.10;2.00;;;16.40;99.90;;;;;;5022072;28;20223;-77
2021/09/14 06:31:38;;;;;;;1.37;1.27;;;16.50;99.90;;;;;;5034398;28;20175;-74
2021/09/14 06:34:03;;;;;;;5.67;2.70;;;16.50;99.90;;;;;;5014589;28;20176;-76
2021/09/14 06:36:29;;;;;;;1.87;1.30;;;16.60;99.90;;;;;;5026511;28;20171;-77
2021/09/14 06:38:54;;;;;;;3.63;3.33;;;16.70;99.90;;;;;;5025582;28;20598;-77
2021/09/14 06:41:21;;;;;;;5.03;2.73;;;16.70;99.90;;;;;;5024184;28;20204;-76
2021/09/14 06:43:47;;;;;;;2.80;2.50;;;16.80;99.90;;;;;;5013009;28;20168;-76
2021/09/14 06:46:12;;;;;;;1.37;1.20;;;17.00;99.90;;;;;;5011760;28;20446;-76
2021/09/14 06:48:38;;;;;;;4.80;1.93;;;17.30;99.90;;;;;;5012759;28;20172;-76
2021/09/14 06:51:04;;;;;;;3.73;1.53;;;17.50;99.90;;;;;;5012777;28;20684;-76
2021/09/14 06:53:30;;;;;;;1.53;1.43;;;17.70;99.90;;;;;;5023717;28;20171;-76
2021/09/14 06:55:57;;;;;;;1.43;1.33;;;17.90;99.90;;;;;;5015036;28;20455;-77
2021/09/14 06:58:22;;;;;;;1.83;1.73;;;18.00;99.90;;;;;;5013747;28;20434;-77
2021/09/14 07:00:48;;;;;;;1.63;1.53;;;18.10;99.90;;;;;;5014942;28;20461;-75
2021/09/14 07:03:14;;;;;;;1.50;1.10;;;18.10;99.90;;;;;;5017892;28;20427;-76
2021/09/14 07:05:40;;;;;;;3.70;1.63;;;18.20;99.90;;;;;;5019509;28;20257;-76
2021/09/14 07:08:05;;;;;;;1.03;0.93;;;18.20;99.90;;;;;;5033225;28;20262;-75
2021/09/14 07:10:31;;;;;;;1.67;0.90;;;18.20;99.90;;;;;;5025141;28;20681;-76
2021/09/14 07:12:56;;;;;;;2.13;1.90;;;18.30;99.90;;;;;;5016794;28;20180;-76
2021/09/14 07:15:22;;;;;;;3.57;3.27;;;18.40;99.90;;;;;;5010967;28;20196;-76
2021/09/14 07:17:48;;;;;;;25.23;4.53;;;18.30;99.90;;;;;;5012388;28;20210;-76
2021/09/14 07:20:13;;;;;;;2.63;1.40;;;18.40;99.90;;;;;;5015857;28;20563;-76
2021/09/14 07:22:39;;;;;;;2.20;2.00;;;18.50;99.90;;;;;;5020503;28;20175;-76
2021/09/14 07:25:06;;;;;;;1.10;1.00;;;18.40;99.90;;;;;;5031665;28;20211;-76
2021/09/14 07:27:32;;;;;;;2.23;1.87;;;18.30;99.90;;;;;;5026211;28;20268;-75
2021/09/14 07:29:58;;;;;;;1.83;1.63;;;18.40;99.90;;;;;;5013320;28;20541;-75
2021/09/14 07:32:23;;;;;;;2.80;1.30;;;18.40;99.90;;;;;;5019158;28;20183;-77
2021/09/14 07:34:49;;;;;;;6.30;1.63;;;18.50;99.90;;;;;;5018680;28;20743;-77
2021/09/14 07:37:14;;;;;;;1.63;1.53;;;18.60;99.90;;;;;;5016131;28;20699;-76
2021/09/14 07:39:40;;;;;;;1.53;1.43;;;18.60;99.90;;;;;;5030673;28;20195;-76
2021/09/14 07:42:06;;;;;;;1.30;1.10;;;18.70;99.90;;;;;;5016642;28;20254;-77
2021/09/14 07:44:31;;;;;;;2.20;1.27;;;18.80;99.90;;;;;;5027684;28;20179;-76
2021/09/14 07:46:57;;;;;;;1.30;1.10;;;18.80;99.90;;;;;;5030533;28;20183;-76
2021/09/14 07:49:22;;;;;;;1.90;1.33;;;18.90;99.90;;;;;;5016771;28;20703;-76
2021/09/14 07:51:48;;;;;;;2.87;1.30;;;18.90;99.90;;;;;;5025611;28;20762;-77
2021/09/14 07:54:13;;;;;;;1.20;1.10;;;18.90;99.90;;;;;;5019940;28;20195;-76
2021/09/14 07:56:39;;;;;;;1.93;1.37;;;19.00;99.90;;;;;;5018229;28;20850;-76
2021/09/14 07:59:04;;;;;;;2.60;2.40;;;19.10;99.90;;;;;;5027642;28;20183;-76
2021/09/14 08:01:30;;;;;;;3.03;2.00;;;19.30;99.90;;;;;;5019923;28;20540;-77
2021/09/14 08:03:55;;;;;;;2.10;1.43;;;19.40;99.90;;;;;;5020575;28;20708;-77
2021/09/14 08:06:21;;;;;;;1.37;1.27;;;19.70;99.90;;;;;;5014171;28;20176;-77
2021/09/14 08:08:46;;;;;;;1.60;1.50;;;20.00;99.90;;;;;;5015367;28;20194;-77
2021/09/14 08:11:12;;;;;;;1.83;1.73;;;20.30;99.90;;;;;;5021338;28;20568;-77
2021/09/14 08:13:38;;;;;;;2.63;2.43;;;20.70;99.90;;;;;;5017767;28;20183;-77
2021/09/14 08:16:04;;;;;;;1.40;1.30;;;21.20;99.90;;;;;;5016810;28;20207;-77
2021/09/14 08:18:30;;;;;;;2.13;1.73;;;21.60;99.90;;;;;;5019636;28;20168;-77
2021/09/14 08:20:56;;;;;;;1.30;1.10;;;22.10;99.90;;;;;;5016272;28;20611;-77
2021/09/14 08:23:21;;;;;;;2.63;2.40;;;22.30;99.90;;;;;;5017082;28;20181;-76
2021/09/14 08:25:47;;;;;;;4.40;2.47;;;22.70;99.90;;;;;;5014978;28;20188;-76
2021/09/14 08:28:12;;;;;;;3.43;2.17;;;23.00;99.90;;;;;;5025707;28;20668;-77
2021/09/14 08:30:38;;;;;;;1.53;1.13;;;23.10;99.90;;;;;;5023912;28;20207;-77
2021/09/14 08:33:04;;;;;;;1.47;1.37;;;23.40;99.90;;;;;;5019563;28;20187;-77
2021/09/14 08:35:30;;;;;;;1.23;1.00;;;23.90;99.90;;;;;;5020656;28;20223;-77
2021/09/14 08:37:56;;;;;;;1.40;1.00;;;24.40;99.90;;;;;;5015630;28;20435;-77
2021/09/14 08:40:21;;;;;;;1.43;1.33;;;24.90;99.90;;;;;;5025031;28;20458;-77
2021/09/14 08:42:48;;;;;;;1.57;1.30;;;25.40;99.90;;;;;;5014143;28;20204;-77
2021/09/14 08:45:14;;;;;;;1.40;1.30;;;25.80;99.90;;;;;;5020591;28;20282;-78
2021/09/14 08:47:39;;;;;;;1.90;1.77;;;26.10;99.90;;;;;;5021506;28;20880;-77
2021/09/14 08:50:07;;;;;;;2.50;2.23;;;26.50;99.90;;;;;;5034522;28;20684;-77
2021/09/14 08:52:33;;;;;;;4.10;1.67;;;27.00;99.90;;;;;;5028896;28;20187;-77
2021/09/14 08:54:59;;;;;;;1.47;1.37;;;27.50;99.90;;;;;;5035396;28;20951;-77
2021/09/14 08:57:24;;;;;;;2.40;2.07;;;27.60;99.90;;;;;;5016534;28;20554;-78
2021/09/14 08:59:54;;;;;;;4.50;2.33;;;27.60;99.90;;;;;;5012875;28;20451;-76
2021/09/14 09:02:21;;;;;;;2.43;2.23;;;28.10;99.90;;;;;;5012122;28;20187;-75
2021/09/14 09:05:04;;;;;;;1.97;1.80;;;27.70;99.90;;;;;;5033788;28;20411;-75
2021/09/14 09:07:33;;;;;;;2.57;1.10;;;27.50;99.90;;;;;;5016012;28;20434;-75
2021/09/14 09:10:09;;;;;;;1.77;1.67;;;27.40;99.90;;;;;;5029181;28;20439;-76
2021/09/14 09:12:39;;;;;;;2.00;1.80;;;27.40;99.90;;;;;;5013106;28;20940;-76
2021/09/14 09:15:07;;;;;;;1.70;1.60;;;27.70;99.90;;;;;;5045048;28;20450;-76
2021/09/14 09:17:32;;;;;;;2.43;2.23;;;27.80;99.90;;;;;;5029080;28;20434;-77
2021/09/14 09:20:02;;;;;;;2.17;1.97;;;27.80;99.90;;;;;;5030892;28;20438;-77
2021/09/14 09:22:28;;;;;;;1.63;1.53;;;28.00;99.90;;;;;;5025479;28;20179;-77
2021/09/14 09:24:54;;;;;;;3.00;2.70;;;28.20;99.90;;;;;;5012807;28;20431;-77
2021/09/14 09:27:23;;;;;;;2.03;1.70;;;28.50;99.90;;;;;;5020334;28;20198;-78
2021/09/14 09:30:00;;;;;;;1.80;1.37;;;28.70;99.90;;;;;;5013970;28;20443;-78
2021/09/14 09:32:26;;;;;;;1.60;1.50;;;29.10;99.90;;;;;;5019092;28;20480;-78
2021/09/14 09:35:00;;;;;;;1.20;1.03;;;29.30;99.10;;;;;;5030415;28;20462;-78
2021/09/14 09:37:26;;;;;;;2.60;1.20;;;29.60;99.10;;;;;;5013908;28;20183;-78
2021/09/14 09:39:52;;;;;;;2.67;2.47;;;30.20;97.50;;;;;;5013701;28;20451;-78
2021/09/14 09:42:19;;;;;;;1.30;1.20;;;30.60;93.70;;;;;;5023163;28;20454;-78
2021/09/14 09:44:54;;;;;;;2.57;2.30;;;30.60;93.30;;;;;;5014284;28;20582;-78
2021/09/14 09:47:20;;;;;;;2.37;1.23;;;31.10;93.20;;;;;;5014023;28;20498;-78
2021/09/14 09:49:49;;;;;;;1.50;1.40;;;31.30;92.90;;;;;;5018670;28;20508;-78
2021/09/14 09:52:16;;;;;;;1.43;1.33;;;32.10;92.00;;;;;;5017422;28;20434;-78
2021/09/14 09:54:43;;;;;;;2.60;1.60;;;32.30;86.50;;;;;;5014849;28;20466;-78
2021/09/14 09:57:09;;;;;;;1.40;1.30;;;32.10;79.80;;;;;;5017922;28;20454;-78
2021/09/14 09:59:35;;;;;;;1.30;1.20;;;31.80;84.00;;;;;;5017917;28;20891;-78
2021/09/14 10:02:10;;;;;;;3.43;1.10;;;31.90;85.50;;;;;;5023288;28;20557;-78
2021/09/14 10:05:03;;;;;;;1.80;1.50;;;31.50;80.80;;;;;;5030072;28;20175;-78
2021/09/14 10:07:31;;;;;;;2.40;2.07;;;31.30;84.10;;;;;;5018026;28;20431;-78
2021/09/14 10:09:59;;;;;;;2.00;1.80;;;30.80;82.90;;;;;;5029663;28;20446;-77
2021/09/14 10:12:32;;;;;;;1.40;1.20;;;31.00;89.60;;;;;;5026015;28;20564;-78
2021/09/14 10:15:10;;;;;;;1.70;1.60;;;31.30;90.00;;;;;;5025225;28;20466;-78
2021/09/14 10:17:49;;;;;;;2.17;1.97;;;31.70;88.50;;;;;;5021800;28;20418;-78
2021/09/14 10:20:16;;;;;;;1.83;1.40;;;31.90;86.10;;;;;;5015891;28;20450;-78
2021/09/14 10:22:46;;;;;;;1.70;1.60;;;32.00;81.20;;;;;;5017337;28;20438;-78
2021/09/14 10:25:20;;;;;;;1.57;1.47;;;32.40;80.30;;;;;;5023032;28;20842;-78
2021/09/14 10:27:47;;;;;;;1.40;1.30;;;32.30;80.60;;;;;;5023709;28;20757;-78
2021/09/14 10:30:14;;;;;;;3.50;1.77;;;32.30;77.80;;;;;;5012829;28;20454;-78
2021/09/14 10:32:43;;;;;;;2.33;1.50;;;32.10;76.00;;;;;;5019288;28;20518;-78
2021/09/14 10:35:23;;;;;;;1.63;1.53;;;32.50;76.30;;;;;;5017700;28;20970;-78
2021/09/14 10:37:51;;;;;;;2.13;1.40;;;32.50;79.20;;;;;;5014331;28;20476;-78
2021/09/14 10:40:16;;;;;;;2.57;2.13;;;33.10;78.90;;;;;;5018937;28;20801;-78
2021/09/14 10:42:45;;;;;;;2.60;1.23;;;33.60;80.40;;;;;;5027541;28;20426;-78
2021/09/14 10:45:13;;;;;;;2.13;1.43;;;33.80;73.90;;;;;;5020312;28;20279;-79
2021/09/14 10:47:43;;;;;;;1.67;1.20;;;33.70;72.70;;;;;;5022325;28;20423;-78
2021/09/14 10:50:34;;;;;;;1.67;1.43;;;33.10;72.10;;;;;;5022802;28;20951;-78
2021/09/14 10:53:02;;;;;;;1.77;1.67;;;33.30;74.00;;;;;;5014333;28;20451;-78
2021/09/14 10:55:30;;;;;;;2.00;1.90;;;33.50;71.60;;;;;;5016601;28;20839;-77
2021/09/14 10:58:00;;;;;;;3.23;2.83;;;33.10;69.90;;;;;;5015308;28;20489;-78
2021/09/14 11:00:31;;;;;;;1.73;1.63;;;32.80;72.70;;;;;;5023335;28;20461;-77
2021/09/14 11:03:01;;;;;;;1.83;1.70;;;32.40;74.80;;;;;;5010359;28;21041;-77
2021/09/14 11:05:31;;;;;;;1.90;1.50;;;32.20;76.30;;;;;;5010545;28;20441;-77
2021/09/14 11:07:58;;;;;;;1.83;1.30;;;32.10;78.30;;;;;;5022117;28;20427;-77
2021/09/14 11:10:24;;;;;;;2.43;2.33;;;31.80;80.00;;;;;;5023856;28;20484;-77
2021/09/14 11:12:50;;;;;;;2.23;1.70;;;31.70;76.40;;;;;;5019636;28;20938;-76
2021/09/14 11:15:15;;;;;;;1.87;1.77;;;31.50;78.00;;;;;;5019763;28;20825;-77
2021/09/14 11:17:41;;;;;;;1.87;1.77;;;31.50;82.40;;;;;;5016052;28;20305;-78
2021/09/14 11:20:18;;;;;;;1.67;1.27;;;31.90;80.00;;;;;;5011018;28;20610;-77
2021/09/14 11:22:44;;;;;;;1.97;1.87;;;32.10;80.70;;;;;;5012583;28;20191;-78
2021/09/14 11:25:16;;;;;;;1.83;1.33;;;32.80;78.30;;;;;;5012719;28;20410;-78
2021/09/14 11:28:02;;;;;;;2.50;2.23;;;33.30;77.80;;;;;;5032433;28;20429;-78
2021/09/14 11:30:30;;;;;;;1.53;1.40;;;34.00;77.50;;;;;;5028278;28;20468;-78
2021/09/14 11:32:57;;;;;;;2.27;2.07;;;34.40;75.50;;;;;;5015935;28;20819;-78
2021/09/14 11:35:23;;;;;;;2.37;2.07;;;34.80;72.80;;;;;;5034788;28;20454;-78
2021/09/14 11:38:01;;;;;;;1.33;1.23;;;34.90;69.00;;;;;;5034601;28;20986;-77
2021/09/14 11:40:27;;;;;;;1.73;1.63;;;35.20;72.40;;;;;;5031410;28;20234;-78
2021/09/14 11:42:57;;;;;;;3.90;2.20;;;35.30;69.90;;;;;;5016554;28;20773;-78
2021/09/14 11:45:25;;;;;;;1.67;1.30;;;35.50;68.00;;;;;;5023592;28;20443;-78
2021/09/14 11:47:52;;;;;;;2.10;1.90;;;35.70;69.80;;;;;;5031623;28;20483;-78
2021/09/14 11:50:30;;;;;;;2.27;1.93;;;35.70;66.80;;;;;;5021699;28;20849;-78
2021/09/14 11:53:04;;;;;;;1.93;1.70;;;35.40;65.40;;;;;;5020576;28;20430;-77
2021/09/14 11:55:30;;;;;;;1.30;1.20;;;34.90;65.00;;;;;;5019447;28;20824;-77
2021/09/14 11:57:56;;;;;;;1.33;1.23;;;34.50;65.20;;;;;;5025057;28;20427;-78
2021/09/14 12:00:33;;;;;;;1.30;1.20;;;33.60;65.10;;;;;;5025384;28;20603;-77
2021/09/14 12:02:58;;;;;;;1.40;1.30;;;33.20;68.20;;;;;;5018985;28;20498;-77
2021/09/14 12:05:24;;;;;;;1.70;1.60;;;32.90;68.20;;;;;;5022972;28;20554;-77
2021/09/14 12:07:57;;;;;;;1.70;1.07;;;32.30;68.90;;;;;;5031919;28;20187;-77
2021/09/14 12:10:24;;;;;;;1.80;1.70;;;32.10;73.10;;;;;;5027000;28;20597;-77
2021/09/14 12:12:54;;;;;;;1.23;1.13;;;31.40;73.70;;;;;;5021994;28;20931;-78
2021/09/14 12:15:21;;;;;;;1.13;1.03;;;31.30;76.80;;;;;;5030890;28;21005;-77
2021/09/14 12:17:47;;;;;;;1.50;1.20;;;30.70;76.50;;;;;;5034657;28;20418;-77
2021/09/14 12:20:14;;;;;;;1.73;1.60;;;30.80;83.60;;;;;;5033218;28;20430;-77
2021/09/14 12:22:39;;;;;;;8.43;3.00;;;30.30;81.10;;;;;;5030329;28;20872;-76
2021/09/14 12:25:05;;;;;;;1.77;1.40;;;29.90;87.10;;;;;;5033919;28;20458;-77
2021/09/14 12:27:31;;;;;;;1.57;1.47;;;29.90;90.60;;;;;;5036011;28;20168;-76
2021/09/14 12:29:57;;;;;;;3.23;2.07;;;29.40;90.20;;;;;;5020168;28;20450;-76
2021/09/14 12:32:22;;;;;;;1.27;1.10;;;29.10;91.70;;;;;;5036267;28;20234;-76
2021/09/14 12:34:48;;;;;;;1.00;0.90;;;28.50;93.00;;;;;;5025720;28;20198;-76
2021/09/14 12:37:13;;;;;;;1.53;1.30;;;28.10;97.50;;;;;;5033100;28;20263;-76
2021/09/14 12:39:39;;;;;;;1.10;1.00;;;28.10;99.90;;;;;;5034341;28;20191;-76
2021/09/14 12:42:05;;;;;;;3.20;1.23;;;27.90;99.90;;;;;;5035344;28;20191;-77
2021/09/14 12:44:31;;;;;;;1.20;1.00;;;27.90;99.90;;;;;;5033664;28;20160;-76
2021/09/14 12:46:58;;;;;;;1.80;1.17;;;27.90;99.90;;;;;;5013915;28;20457;-76
2021/09/14 12:49:24;;;;;;;2.13;1.30;;;27.90;99.90;;;;;;5017320;28;20680;-76
2021/09/14 12:51:49;;;;;;;2.87;1.77;;;28.00;99.90;;;;;;5014960;28;20423;-77
2021/09/14 12:54:15;;;;;;;1.30;1.20;;;28.10;99.90;;;;;;5024803;28;20431;-77
2021/09/14 12:56:41;;;;;;;2.17;1.90;;;28.20;99.90;;;;;;5027706;28;20172;-77
2021/09/14 12:59:09;;;;;;;1.53;1.43;;;28.10;99.90;;;;;;5034891;28;20163;-78
2021/09/14 13:01:35;;;;;;;1.20;0.93;;;28.10;99.90;;;;;;5033541;28;20434;-77
2021/09/14 13:04:00;;;;;;;1.40;1.10;;;28.20;99.90;;;;;;5022858;28;20977;-77
2021/09/14 13:06:26;;;;;;;1.20;1.10;;;28.30;99.90;;;;;;5029211;28;20168;-77
2021/09/14 13:08:52;;;;;;;2.70;2.30;;;28.20;99.90;;;;;;5033768;28;20544;-76
2021/09/14 13:11:17;;;;;;;1.00;0.90;;;28.30;99.90;;;;;;5032093;28;20213;-76
2021/09/14 13:16:27;;;;;;;2.03;1.20;;;28.80;99.90;;;;;;5024442;28;20206;-77
2021/09/14 13:18:53;;;;;;;1.53;1.43;;;28.90;99.90;;;;;;5015347;28;20419;-77
2021/09/14 13:21:21;;;;;;;1.60;1.50;;;29.10;99.90;;;;;;5033667;28;20187;-77
2021/09/14 13:23:48;;;;;;;1.37;1.17;;;29.30;99.90;;;;;;5016608;28;20196;-77
2021/09/14 13:26:14;;;;;;;1.30;1.20;;;29.40;99.90;;;;;;5023878;28;20498;-77
2021/09/14 13:28:40;;;;;;;2.13;1.33;;;29.40;99.90;;;;;;5014994;28;20446;-77
2021/09/14 13:31:07;;;;;;;1.87;1.40;;;29.20;99.90;;;;;;5014139;28;20453;-76
2021/09/14 13:33:36;;;;;;;0.90;0.80;;;29.20;99.90;;;;;;5014132;28;20168;-76
2021/09/14 13:36:04;;;;;;;2.03;1.10;;;29.10;99.90;;;;;;5027069;28;20493;-76
2021/09/14 13:38:30;;;;;;;1.50;1.40;;;28.80;99.90;;;;;;5032382;28;20510;-76
2021/09/14 13:41:04;;;;;;;1.87;0.93;;;28.40;99.90;;;;;;5032860;28;20822;-77
2021/09/14 13:43:35;;;;;;;2.20;1.33;;;28.20;99.90;;;;;;5033642;28;20455;-76
2021/09/14 13:46:14;;;;;;;1.17;1.07;;;27.90;99.90;;;;;;5018072;28;20427;-76